Keating, Oregon
Current Conditions -  °F | °C
As of 12:53 PM on Thursday 23 Oct 2014 (Local Time) from KBKE Reporting Station
Light Rain Light Rain  
Wind Chill: 56°   Ceiling: 6000
Heat Index: 56°   Visibility: 10mi
Dew Point: 44°   Wind: 13mph
Humidity: 64%   Direction: 120°ESE
Pressure: 29.95"   Gusts: NA
Location:  44.7595°N, 117.716°W
Report Text: KBKE 231953Z AUTO 12011KT 10SM -RA FEW035 BKN060 OVC070 13/07 A2995 RMK AO2 SLP133 P0000 T01330067
Loading
Personal Weather Stations






























Interactive Weather Map
Tropical Storm Tracking
New forecast layout! Learn more

10-Day Weather Forecast

Advertisements
Track Severe Weather on mobile